Time;durP1;ratioP1;P1;durP2;ratioP2;P2;SDS_P1;SDS_P2;PMS_P1;PMS_P2;Temp;Humidity;BMP_temperature;BMP_pressure;BME280_temperature;BME280_humidity;BME280_pressure;Samples;Min_cycle;Max_cycle;Signal;HPM_P1;HPM_P2
2021/07/25 00:00:55;;;;;;;0.10;0.10;;;;;;;;;;4807912;29;20042;-89
2021/07/25 00:03:21;;;;;;;0.28;0.22;;;;;;;;;;4793075;29;20078;-89
2021/07/25 00:05:47;;;;;;;0.10;0.10;;;;;;;;;;4808078;29;20058;-89
2021/07/25 00:08:13;;;;;;;0.20;0.20;;;;;;;;;;4823208;29;20067;-89
2021/07/25 00:10:43;;;;;;;0.20;0.20;;;;;;;;;;4807698;29;20042;-90
2021/07/25 00:13:09;;;;;;;0.10;0.10;;;;;;;;;;4807818;29;20133;-89
2021/07/25 00:15:35;;;;;;;0.13;0.13;;;;;;;;;;4822950;29;20228;-89
2021/07/25 00:18:02;;;;;;;0.10;0.10;;;;;;;;;;4807615;29;20171;-89
2021/07/25 00:20:28;;;;;;;0.10;0.10;;;;;;;;;;4807383;29;20491;-89
2021/07/25 00:22:54;;;;;;;0.20;0.20;;;;;;;;;;4807818;29;20042;-89
2021/07/25 00:25:20;;;;;;;0.10;0.10;;;;;;;;;;4822772;29;20038;-89
2021/07/25 00:27:51;;;;;;;1.38;0.43;;;;;;;;;;4807688;29;20049;-89
2021/07/25 00:30:17;;;;;;;0.20;0.20;;;;;;;;;;4807556;29;20129;-89
2021/07/25 00:32:43;;;;;;;0.20;0.20;;;;;;;;;;4807530;29;20129;-89
2021/07/25 00:35:10;;;;;;;0.20;0.20;;;;;;;;;;4807404;29;20195;-89
2021/07/25 00:37:36;;;;;;;0.10;0.10;;;;;;;;;;4822620;29;20049;-89
2021/07/25 00:40:02;;;;;;;0.20;0.20;;;;;;;;;;4822371;29;20129;-89
2021/07/25 00:42:38;;;;;;;0.20;0.20;;;;;;;;;;4822489;29;20083;-89
2021/07/25 00:45:04;;;;;;;0.43;0.20;;;;;;;;;;4821785;29;20048;-88
2021/07/25 00:47:30;;;;;;;0.55;0.38;;;;;;;;;;4807067;29;20042;-89
2021/07/25 00:50:03;;;;;;;0.10;0.10;;;;;;;;;;4822547;29;20047;-88
2021/07/25 00:52:30;;;;;;;0.20;0.20;;;;;;;;;;4822187;29;20066;-89
2021/07/25 00:54:56;;;;;;;0.10;0.10;;;;;;;;;;4822633;29;20050;-89
2021/07/25 00:57:22;;;;;;;0.20;0.20;;;;;;;;;;4822349;29;20062;-90
2021/07/25 00:59:48;;;;;;;0.10;0.10;;;;;;;;;;4807488;29;20039;-89
2021/07/25 01:02:14;;;;;;;0.20;0.20;;;;;;;;;;4807395;29;20210;-89
2021/07/25 01:04:50;;;;;;;0.10;0.10;;;;;;;;;;4807146;29;20046;-89
2021/07/25 01:07:29;;;;;;;0.20;0.20;;;;;;;;;;4807104;29;20044;-89
2021/07/25 01:10:06;;;;;;;0.20;0.20;;;;;;;;;;4822205;29;20047;-89
2021/07/25 01:12:45;;;;;;;0.10;0.10;;;;;;;;;;4806973;29;20517;-89
2021/07/25 01:15:12;;;;;;;0.10;0.10;;;;;;;;;;4807157;29;20048;-89
2021/07/25 01:17:38;;;;;;;0.10;0.10;;;;;;;;;;4822067;29;20046;-89
2021/07/25 01:20:05;;;;;;;0.20;0.20;;;;;;;;;;4807141;29;20134;-89
2021/07/25 01:22:31;;;;;;;0.20;0.20;;;;;;;;;;4807137;29;20050;-89
2021/07/25 01:24:57;;;;;;;0.10;0.10;;;;;;;;;;4806990;29;20046;-89
2021/07/25 01:27:35;;;;;;;0.30;0.30;;;;;;;;;;4806933;29;20042;-89
2021/07/25 01:30:01;;;;;;;0.20;0.20;;;;;;;;;;4791680;29;20042;-89
2021/07/25 01:32:28;;;;;;;0.20;0.20;;;;;;;;;;4806833;29;20059;-89
2021/07/25 01:34:54;;;;;;;0.25;0.25;;;;;;;;;;4822255;29;20061;-90
2021/07/25 01:37:21;;;;;;;0.10;0.10;;;;;;;;;;4822203;29;20115;-90
2021/07/25 01:39:47;;;;;;;0.10;0.10;;;;;;;;;;4807255;29;20049;-90
2021/07/25 01:42:25;;;;;;;0.40;0.40;;;;;;;;;;4822152;29;20042;-89
2021/07/25 01:44:51;;;;;;;0.20;0.20;;;;;;;;;;4806739;29;20096;-90
2021/07/25 01:47:17;;;;;;;0.10;0.10;;;;;;;;;;4807161;29;20042;-90
2021/07/25 01:49:43;;;;;;;0.17;0.17;;;;;;;;;;4807435;29;20054;-91
2021/07/25 01:52:09;;;;;;;0.10;0.10;;;;;;;;;;4806791;29;20439;-90
2021/07/25 01:54:39;;;;;;;0.43;0.43;;;;;;;;;;4807460;29;20042;-90
2021/07/25 01:57:05;;;;;;;0.52;0.52;;;;;;;;;;4823959;29;20038;-91
2021/07/25 01:59:31;;;;;;;0.10;0.10;;;;;;;;;;4810418;29;20034;-90
2021/07/25 02:01:57;;;;;;;0.10;0.10;;;;;;;;;;4810421;29;20099;-90
2021/07/25 02:04:23;;;;;;;0.15;0.15;;;;;;;;;;4825453;29;20042;-91
2021/07/25 02:06:49;;;;;;;0.10;0.10;;;;;;;;;;4810419;29;20049;-90
2021/07/25 02:09:15;;;;;;;0.30;0.30;;;;;;;;;;4810076;29;20095;-90
2021/07/25 02:11:41;;;;;;;0.20;0.20;;;;;;;;;;4809825;29;20050;-90
2021/07/25 02:14:08;;;;;;;0.10;0.10;;;;;;;;;;4795092;29;20126;-89
2021/07/25 02:16:34;;;;;;;0.10;0.10;;;;;;;;;;4810077;29;20054;-90
2021/07/25 02:19:01;;;;;;;0.20;0.20;;;;;;;;;;4794932;29;20411;-91
2021/07/25 02:21:26;;;;;;;0.10;0.10;;;;;;;;;;4825087;29;20058;-90
2021/07/25 02:23:53;;;;;;;0.10;0.10;;;;;;;;;;4809860;29;20050;-89
2021/07/25 02:26:19;;;;;;;0.10;0.10;;;;;;;;;;4809541;29;20066;-89
2021/07/25 02:28:45;;;;;;;0.20;0.20;;;;;;;;;;4809695;29;20042;-90
2021/07/25 02:31:11;;;;;;;0.10;0.10;;;;;;;;;;4824727;29;20038;-90
2021/07/25 02:33:37;;;;;;;0.50;0.50;;;;;;;;;;4809744;29;20069;-90
2021/07/25 02:36:03;;;;;;;0.10;0.10;;;;;;;;;;4809390;29;20049;-90
2021/07/25 02:38:29;;;;;;;0.10;0.10;;;;;;;;;;4794383;29;20135;-90
2021/07/25 02:40:55;;;;;;;0.10;0.10;;;;;;;;;;4809333;29;20148;-89
2021/07/25 02:43:21;;;;;;;0.75;0.40;;;;;;;;;;4824571;29;20544;-89
2021/07/25 02:45:47;;;;;;;0.10;0.10;;;;;;;;;;4824227;29;20046;-89
2021/07/25 02:48:13;;;;;;;0.10;0.10;;;;;;;;;;4809212;29;20046;-89
2021/07/25 02:50:39;;;;;;;0.10;0.10;;;;;;;;;;4809042;29;20046;-89
2021/07/25 02:53:05;;;;;;;0.20;0.20;;;;;;;;;;4808853;29;20050;-90
2021/07/25 02:55:33;;;;;;;0.10;0.10;;;;;;;;;;4824153;29;20121;-89
2021/07/25 02:57:59;;;;;;;0.35;0.35;;;;;;;;;;4808930;29;20475;-89
2021/07/25 03:00:25;;;;;;;0.10;0.10;;;;;;;;;;4809119;29;20045;-89
2021/07/25 03:02:55;;;;;;;0.10;0.10;;;;;;;;;;4823954;29;20057;-90
2021/07/25 03:05:22;;;;;;;0.10;0.10;;;;;;;;;;4809024;29;20053;-89
2021/07/25 03:07:48;;;;;;;0.10;0.10;;;;;;;;;;4822947;29;20042;-89
2021/07/25 03:10:14;;;;;;;0.17;0.17;;;;;;;;;;4808883;29;20051;-89
2021/07/25 03:12:40;;;;;;;0.13;0.13;;;;;;;;;;4808590;29;20051;-88
2021/07/25 03:15:06;;;;;;;0.10;0.10;;;;;;;;;;4808568;29;20468;-89
2021/07/25 03:17:32;;;;;;;0.20;0.20;;;;;;;;;;4793632;29;20571;-89
2021/07/25 03:19:58;;;;;;;0.65;0.20;;;;;;;;;;4823858;29;20148;-89
2021/07/25 03:22:24;;;;;;;0.20;0.20;;;;;;;;;;4793720;29;20054;-89
2021/07/25 03:24:50;;;;;;;0.10;0.10;;;;;;;;;;4793550;29;20058;-89
2021/07/25 03:27:17;;;;;;;0.38;0.38;;;;;;;;;;4808214;29;20081;-89
2021/07/25 03:29:43;;;;;;;1.65;0.20;;;;;;;;;;4823563;29;20046;-89
2021/07/25 03:32:09;;;;;;;0.43;0.30;;;;;;;;;;4823328;29;20039;-88
2021/07/25 03:34:35;;;;;;;0.20;0.20;;;;;;;;;;4823322;29;20494;-88
2021/07/25 03:37:01;;;;;;;0.20;0.20;;;;;;;;;;4823112;29;20484;-88
2021/07/25 03:39:28;;;;;;;0.10;0.10;;;;;;;;;;4823447;29;20053;-88
2021/07/25 03:41:54;;;;;;;0.20;0.20;;;;;;;;;;4807736;29;20136;-88
2021/07/25 03:44:20;;;;;;;0.20;0.20;;;;;;;;;;4792725;29;20062;-88
2021/07/25 03:46:46;;;;;;;0.10;0.10;;;;;;;;;;4807993;29;20038;-88
2021/07/25 03:49:12;;;;;;;0.10;0.10;;;;;;;;;;4807981;29;20046;-88
2021/07/25 03:51:38;;;;;;;0.10;0.10;;;;;;;;;;4792517;29;20384;-89
2021/07/25 03:54:07;;;;;;;0.20;0.20;;;;;;;;;;4807876;29;20511;-88
2021/07/25 03:56:38;;;;;;;0.10;0.10;;;;;;;;;;4792985;29;20503;-88
2021/07/25 03:59:04;;;;;;;0.10;0.10;;;;;;;;;;4807815;29;20043;-88
2021/07/25 04:01:30;;;;;;;0.10;0.10;;;;;;;;;;4807974;29;20050;-89
2021/07/25 04:03:56;;;;;;;0.15;0.15;;;;;;;;;;4808023;29;20043;-89
2021/07/25 04:06:22;;;;;;;0.10;0.10;;;;;;;;;;4822937;29;20043;-89
2021/07/25 04:08:48;;;;;;;0.10;0.10;;;;;;;;;;4822900;29;20038;-89
2021/07/25 04:11:20;;;;;;;0.10;0.10;;;;;;;;;;4807571;29;20073;-89
2021/07/25 04:13:46;;;;;;;0.20;0.20;;;;;;;;;;4807612;29;20050;-89
2021/07/25 04:16:12;;;;;;;0.10;0.10;;;;;;;;;;4807696;29;20114;-89
2021/07/25 04:18:38;;;;;;;0.30;0.30;;;;;;;;;;4807033;29;20050;-89
2021/07/25 04:21:04;;;;;;;0.10;0.10;;;;;;;;;;4807621;29;20042;-89
2021/07/25 04:23:31;;;;;;;0.10;0.10;;;;;;;;;;4807786;29;20050;-89
2021/07/25 04:25:57;;;;;;;0.20;0.20;;;;;;;;;;4807713;29;20050;-89
2021/07/25 04:28:24;;;;;;;0.10;0.10;;;;;;;;;;4822579;29;20043;-88
2021/07/25 04:30:50;;;;;;;0.10;0.10;;;;;;;;;;4822666;29;20042;-89
2021/07/25 04:33:17;;;;;;;0.10;0.10;;;;;;;;;;4807171;29;20053;-89
2021/07/25 04:35:43;;;;;;;0.10;0.10;;;;;;;;;;4806894;29;20057;-89
2021/07/25 04:38:09;;;;;;;0.10;0.10;;;;;;;;;;4822372;29;20050;-88
2021/07/25 04:40:35;;;;;;;0.10;0.10;;;;;;;;;;4807202;29;20053;-88
2021/07/25 04:43:03;;;;;;;0.20;0.20;;;;;;;;;;4822611;29;20133;-89
2021/07/25 04:45:50;;;;;;;0.10;0.10;;;;;;;;;;4822803;29;20042;-90
2021/07/25 04:48:23;;;;;;;0.10;0.10;;;;;;;;;;4807671;29;20041;-90
2021/07/25 04:50:55;;;;;;;0.10;0.10;;;;;;;;;;4792456;29;20059;-89
2021/07/25 04:53:25;;;;;;;0.30;0.30;;;;;;;;;;4822420;29;20137;-89
2021/07/25 04:55:54;;;;;;;0.20;0.20;;;;;;;;;;4807210;29;20107;-89
2021/07/25 04:58:22;;;;;;;0.20;0.20;;;;;;;;;;4792006;29;20062;-89
2021/07/25 05:00:49;;;;;;;0.10;0.10;;;;;;;;;;4822579;29;20038;-89
2021/07/25 05:03:15;;;;;;;0.10;0.10;;;;;;;;;;4806999;29;20041;-89
2021/07/25 05:05:41;;;;;;;0.10;0.10;;;;;;;;;;4822307;29;20051;-89
2021/07/25 05:08:07;;;;;;;0.20;0.20;;;;;;;;;;4792168;29;20054;-89
2021/07/25 05:10:33;;;;;;;0.10;0.10;;;;;;;;;;4792107;29;20095;-89
2021/07/25 05:13:06;;;;;;;0.10;0.10;;;;;;;;;;4822300;29;20042;-90
2021/07/25 05:15:33;;;;;;;0.10;0.10;;;;;;;;;;4822349;29;20050;-89
2021/07/25 05:17:59;;;;;;;0.10;0.10;;;;;;;;;;4807271;29;20046;-88
2021/07/25 05:20:32;;;;;;;0.10;0.10;;;;;;;;;;4806981;29;20125;-90
2021/07/25 05:23:10;;;;;;;0.10;0.10;;;;;;;;;;4807178;29;20393;-88
2021/07/25 05:25:36;;;;;;;0.10;0.10;;;;;;;;;;4822389;29;20042;-89
2021/07/25 05:28:02;;;;;;;0.15;0.15;;;;;;;;;;4823351;29;20035;-89
2021/07/25 05:30:29;;;;;;;0.55;0.55;;;;;;;;;;4806740;29;20042;-89
2021/07/25 05:32:55;;;;;;;0.20;0.20;;;;;;;;;;4809818;29;20054;-89
2021/07/25 05:35:21;;;;;;;0.20;0.20;;;;;;;;;;4795396;29;20479;-89
2021/07/25 05:37:47;;;;;;;0.20;0.20;;;;;;;;;;4795386;29;20522;-89
2021/07/25 05:40:13;;;;;;;0.10;0.10;;;;;;;;;;4810366;29;20050;-90
2021/07/25 05:42:40;;;;;;;0.43;0.38;;;;;;;;;;4810386;29;20484;-89
2021/07/25 05:45:07;;;;;;;0.20;0.20;;;;;;;;;;4825506;29;20069;-89
2021/07/25 05:47:34;;;;;;;0.20;0.20;;;;;;;;;;4810242;29;20051;-90
2021/07/25 05:50:00;;;;;;;0.90;0.40;;;;;;;;;;4810411;29;20039;-89
2021/07/25 05:52:28;;;;;;;0.38;0.30;;;;;;;;;;4824943;29;20050;-89
2021/07/25 05:54:54;;;;;;;0.20;0.20;;;;;;;;;;4810000;29;20191;-91
2021/07/25 05:57:20;;;;;;;0.25;0.25;;;;;;;;;;4810447;29;20054;-90
2021/07/25 05:59:48;;;;;;;0.35;0.28;;;;;;;;;;4810136;29;20050;-90
2021/07/25 06:02:14;;;;;;;0.20;0.20;;;;;;;;;;4825279;29;20548;-90
2021/07/25 06:04:40;;;;;;;0.10;0.10;;;;;;;;;;4795388;29;20053;-91
2021/07/25 06:07:06;;;;;;;0.13;0.13;;;;;;;;;;4810084;29;20457;-89
2021/07/25 06:09:34;;;;;;;0.13;0.13;;;;;;;;;;4810405;29;20046;-90
2021/07/25 06:12:01;;;;;;;0.17;0.17;;;;;;;;;;4809577;29;20062;-90
2021/07/25 06:14:27;;;;;;;0.20;0.20;;;;;;;;;;4824798;29;20111;-90
2021/07/25 06:16:54;;;;;;;0.20;0.20;;;;;;;;;;4825083;29;20035;-90
2021/07/25 06:19:20;;;;;;;0.20;0.20;;;;;;;;;;4809465;29;20084;-90
2021/07/25 06:21:46;;;;;;;0.30;0.30;;;;;;;;;;4824446;29;20042;-89
2021/07/25 06:24:12;;;;;;;0.20;0.20;;;;;;;;;;4809234;29;20434;-90
2021/07/25 06:26:38;;;;;;;0.10;0.10;;;;;;;;;;4826741;29;20453;-90
2021/07/25 06:29:09;;;;;;;0.20;0.20;;;;;;;;;;4810182;29;20042;-89
2021/07/25 06:31:35;;;;;;;0.20;0.20;;;;;;;;;;4824465;29;20042;-88
2021/07/25 06:34:03;;;;;;;0.13;0.13;;;;;;;;;;4824119;29;20078;-89
2021/07/25 06:36:31;;;;;;;0.10;0.10;;;;;;;;;;4809232;29;20038;-89
2021/07/25 06:38:57;;;;;;;0.20;0.20;;;;;;;;;;4824288;29;20046;-89
2021/07/25 06:41:23;;;;;;;0.20;0.20;;;;;;;;;;4809313;29;20046;-91
2021/07/25 06:43:55;;;;;;;0.30;0.30;;;;;;;;;;4824053;29;20043;-91
2021/07/25 06:46:22;;;;;;;0.20;0.20;;;;;;;;;;4811305;29;20038;-92
2021/07/25 06:48:48;;;;;;;0.40;0.40;;;;;;;;;;4823854;29;20050;-89
2021/07/25 06:51:15;;;;;;;0.10;0.10;;;;;;;;;;4823987;29;20042;-89
2021/07/25 06:53:42;;;;;;;0.65;0.65;;;;;;;;;;4808843;29;20046;-91
2021/07/25 06:56:08;;;;;;;0.35;0.35;;;;;;;;;;4794306;29;20492;-90
2021/07/25 06:58:34;;;;;;;0.20;0.20;;;;;;;;;;4808771;29;20046;-90
2021/07/25 07:01:02;;;;;;;0.15;0.15;;;;;;;;;;4809053;29;20050;-90
2021/07/25 07:03:28;;;;;;;0.15;0.15;;;;;;;;;;4809153;29;20564;-91
2021/07/25 07:05:54;;;;;;;0.20;0.20;;;;;;;;;;4808950;29;20042;-90
2021/07/25 07:08:21;;;;;;;0.20;0.20;;;;;;;;;;4808560;29;20107;-87
2021/07/25 07:10:47;;;;;;;0.43;0.43;;;;;;;;;;4808491;29;20121;-89
2021/07/25 07:13:14;;;;;;;0.10;0.10;;;;;;;;;;4808343;29;20049;-89
2021/07/25 07:15:41;;;;;;;0.15;0.15;;;;;;;;;;4808442;29;20043;-89
2021/07/25 07:18:07;;;;;;;0.10;0.10;;;;;;;;;;4808145;29;20070;-89
2021/07/25 07:20:33;;;;;;;0.20;0.20;;;;;;;;;;4823598;29;20050;-89
2021/07/25 07:22:59;;;;;;;0.20;0.20;;;;;;;;;;4823925;29;20079;-89
2021/07/25 07:25:30;;;;;;;0.10;0.10;;;;;;;;;;4824468;29;20556;-89
2021/07/25 07:27:56;;;;;;;0.30;0.30;;;;;;;;;;4807789;29;20090;-88
2021/07/25 07:30:22;;;;;;;0.17;0.17;;;;;;;;;;4808049;29;20080;-89
2021/07/25 07:32:48;;;;;;;0.63;0.43;;;;;;;;;;4823157;29;20050;-90
2021/07/25 07:35:14;;;;;;;0.10;0.10;;;;;;;;;;4808204;29;20050;-89
2021/07/25 07:37:40;;;;;;;0.30;0.30;;;;;;;;;;4793157;29;20046;-89
2021/07/25 07:40:07;;;;;;;0.20;0.20;;;;;;;;;;4807845;29;20122;-89
2021/07/25 07:42:33;;;;;;;0.30;0.30;;;;;;;;;;4807889;29;20667;-90
2021/07/25 07:44:59;;;;;;;0.20;0.20;;;;;;;;;;4807754;29;20396;-89
2021/07/25 07:47:25;;;;;;;0.20;0.20;;;;;;;;;;4822972;29;20038;-89
2021/07/25 07:49:51;;;;;;;0.10;0.10;;;;;;;;;;4807734;29;20053;-89
2021/07/25 07:52:17;;;;;;;0.20;0.20;;;;;;;;;;4823765;29;20097;-89
2021/07/25 07:54:43;;;;;;;0.20;0.20;;;;;;;;;;4807461;29;20046;-89
2021/07/25 07:57:09;;;;;;;0.20;0.20;;;;;;;;;;4822980;29;20053;-90
2021/07/25 07:59:35;;;;;;;0.20;0.20;;;;;;;;;;4822834;29;20045;-89
2021/07/25 08:02:05;;;;;;;0.43;0.43;;;;;;;;;;4807991;29;20054;-89
2021/07/25 08:04:31;;;;;;;0.30;0.30;;;;;;;;;;4822779;29;20093;-89
2021/07/25 08:06:57;;;;;;;0.10;0.10;;;;;;;;;;4807414;29;20491;-89
2021/07/25 08:09:23;;;;;;;0.10;0.10;;;;;;;;;;4792547;29;20067;-89
2021/07/25 08:11:49;;;;;;;0.20;0.20;;;;;;;;;;4807320;29;20058;-90
2021/07/25 08:14:16;;;;;;;0.10;0.10;;;;;;;;;;4807420;29;20057;-89
2021/07/25 08:16:43;;;;;;;0.20;0.20;;;;;;;;;;4807464;29;20122;-89
2021/07/25 08:19:09;;;;;;;0.20;0.20;;;;;;;;;;4808029;29;20084;-90
2021/07/25 08:21:35;;;;;;;0.35;0.35;;;;;;;;;;4807642;29;20526;-92
2021/07/25 08:24:02;;;;;;;0.38;0.30;;;;;;;;;;4807582;29;20034;-90
2021/07/25 08:26:28;;;;;;;0.30;0.30;;;;;;;;;;4807328;29;20066;-90
2021/07/25 08:28:54;;;;;;;0.73;0.73;;;;;;;;;;4806854;29;20076;-90
2021/07/25 08:31:20;;;;;;;0.20;0.20;;;;;;;;;;4807137;29;20492;-90
2021/07/25 08:33:46;;;;;;;0.30;0.30;;;;;;;;;;4807485;29;20057;-91
2021/07/25 08:36:12;;;;;;;0.40;0.40;;;;;;;;;;4807421;29;20050;-91
2021/07/25 08:38:38;;;;;;;0.20;0.20;;;;;;;;;;4807389;29;20046;-91
2021/07/25 08:41:11;;;;;;;0.38;0.38;;;;;;;;;;4807204;29;20053;-89
2021/07/25 08:43:38;;;;;;;0.30;0.30;;;;;;;;;;4807269;29;20049;-91
2021/07/25 08:46:06;;;;;;;0.20;0.20;;;;;;;;;;4807715;29;20047;-91
2021/07/25 08:48:32;;;;;;;0.10;0.10;;;;;;;;;;4822367;29;20411;-90
2021/07/25 08:51:04;;;;;;;0.32;0.32;;;;;;;;;;4806945;29;20135;-89
2021/07/25 08:53:33;;;;;;;0.73;0.73;;;;;;;;;;4806849;29;20089;-90
2021/07/25 08:55:59;;;;;;;0.10;0.10;;;;;;;;;;4807004;29;20042;-90
2021/07/25 08:58:25;;;;;;;0.20;0.20;;;;;;;;;;4787484;29;20107;-90
2021/07/25 09:00:52;;;;;;;0.90;0.90;;;;;;;;;;4789031;29;20039;-91
2021/07/25 09:03:19;;;;;;;0.60;0.57;;;;;;;;;;4789012;29;20542;-89
2021/07/25 09:05:45;;;;;;;0.65;0.65;;;;;;;;;;4803098;29;20089;-88
2021/07/25 09:08:11;;;;;;;0.43;0.43;;;;;;;;;;4788532;29;20107;-89
2021/07/25 09:10:37;;;;;;;0.20;0.20;;;;;;;;;;4803642;29;20049;-88
2021/07/25 09:13:03;;;;;;;0.80;0.55;;;;;;;;;;4803561;29;20042;-88
2021/07/25 09:15:30;;;;;;;0.30;0.30;;;;;;;;;;4797407;29;20090;-89
2021/07/25 09:17:57;;;;;;;0.68;0.38;;;;;;;;;;4806492;29;20082;-89
2021/07/25 09:20:23;;;;;;;0.20;0.20;;;;;;;;;;4803073;29;20064;-88
2021/07/25 09:22:49;;;;;;;0.40;0.40;;;;;;;;;;4818781;29;20460;-88
2021/07/25 09:25:21;;;;;;;0.30;0.30;;;;;;;;;;4823554;29;20050;-90
2021/07/25 09:27:56;;;;;;;0.20;0.20;;;;;;;;;;4807607;29;20049;-89
2021/07/25 09:30:23;;;;;;;0.85;0.57;;;;;;;;;;4833602;29;20038;-91
2021/07/25 09:32:49;;;;;;;0.20;0.20;;;;;;;;;;4824998;29;20068;-88
2021/07/25 09:35:28;;;;;;;0.68;0.68;;;;;;;;;;4824790;29;20493;-85
2021/07/25 09:37:57;;;;;;;0.20;0.20;;;;;;;;;;4840820;29;20048;-87
2021/07/25 09:40:27;;;;;;;0.30;0.30;;;;;;;;;;4824734;29;20037;-89
2021/07/25 09:43:07;;;;;;;0.20;0.20;;;;;;;;;;4824710;29;20046;-87
2021/07/25 09:45:33;;;;;;;0.65;0.65;;;;;;;;;;4824744;29;20038;-86
2021/07/25 09:48:12;;;;;;;0.35;0.35;;;;;;;;;;4824565;29;20116;-87
2021/07/25 09:50:38;;;;;;;0.20;0.20;;;;;;;;;;4809508;29;20061;-86
2021/07/25 09:53:04;;;;;;;0.28;0.28;;;;;;;;;;4824453;29;20439;-87
2021/07/25 09:55:30;;;;;;;0.20;0.20;;;;;;;;;;4809618;29;20042;-87
2021/07/25 09:57:56;;;;;;;0.20;0.20;;;;;;;;;;4809457;29;20045;-86
2021/07/25 10:00:22;;;;;;;0.20;0.20;;;;;;;;;;4824733;29;20034;-85
2021/07/25 10:02:49;;;;;;;0.40;0.40;;;;;;;;;;4824550;29;20054;-87
2021/07/25 10:05:21;;;;;;;0.40;0.40;;;;;;;;;;4809892;29;20571;-89
2021/07/25 10:07:48;;;;;;;0.20;0.20;;;;;;;;;;4810185;29;20061;-89
2021/07/25 10:10:14;;;;;;;0.77;0.77;;;;;;;;;;4809574;29;20042;-89
2021/07/25 10:12:41;;;;;;;0.60;0.60;;;;;;;;;;4794302;29;20103;-88
2021/07/25 10:15:10;;;;;;;0.22;0.22;;;;;;;;;;4809464;29;20049;-89
2021/07/25 10:17:38;;;;;;;0.45;0.45;;;;;;;;;;4825978;29;20097;-87
2021/07/25 10:20:05;;;;;;;0.70;0.70;;;;;;;;;;4812917;29;20048;-90
2021/07/25 10:22:31;;;;;;;0.75;0.65;;;;;;;;;;4794700;29;20049;-89
2021/07/25 10:24:58;;;;;;;0.20;0.20;;;;;;;;;;4776757;29;20054;-90
2021/07/25 10:27:24;;;;;;;0.45;0.45;;;;;;;;;;4776479;29;20062;-88
2021/07/25 10:29:52;;;;;;;0.63;0.40;;;;;;;;;;4791507;29;20050;-90
2021/07/25 10:32:20;;;;;;;0.20;0.20;;;;;;;;;;4776772;29;20091;-89
2021/07/25 10:34:46;;;;;;;0.38;0.30;;;;;;;;;;4776614;29;20047;-88
2021/07/25 10:37:12;;;;;;;0.30;0.30;;;;;;;;;;4791172;29;20077;-87
2021/07/25 10:39:40;;;;;;;0.40;0.40;;;;;;;;;;4792083;29;20042;-89
2021/07/25 10:42:06;;;;;;;0.38;0.38;;;;;;;;;;4791596;29;20488;-89
2021/07/25 10:44:32;;;;;;;0.20;0.20;;;;;;;;;;4792720;29;20066;-89
2021/07/25 10:47:20;;;;;;;0.20;0.20;;;;;;;;;;4792652;29;20069;-91
2021/07/25 10:49:55;;;;;;;0.22;0.22;;;;;;;;;;4791434;29;20088;-90
2021/07/25 10:52:22;;;;;;;0.20;0.20;;;;;;;;;;4775593;29;20059;-90
2021/07/25 10:54:48;;;;;;;0.20;0.20;;;;;;;;;;4776571;29;20381;-91
2021/07/25 10:57:14;;;;;;;0.30;0.30;;;;;;;;;;4776544;29;20531;-90
2021/07/25 10:59:44;;;;;;;0.22;0.22;;;;;;;;;;4791647;29;20054;-90
2021/07/25 11:02:12;;;;;;;0.20;0.20;;;;;;;;;;4808551;29;20102;-90
2021/07/25 11:04:51;;;;;;;0.20;0.20;;;;;;;;;;4776998;29;20083;-91
2021/07/25 11:07:32;;;;;;;0.28;0.28;;;;;;;;;;4791310;29;20051;-91
2021/07/25 11:10:02;;;;;;;0.17;0.17;;;;;;;;;;4790841;29;20047;-90
2021/07/25 11:12:47;;;;;;;0.50;0.50;;;;;;;;;;4776211;29;20047;-90
2021/07/25 11:15:32;;;;;;;0.20;0.20;;;;;;;;;;4791016;29;20057;-91
2021/07/25 11:18:01;;;;;;;0.30;0.30;;;;;;;;;;4790847;29;20081;-91
2021/07/25 11:20:30;;;;;;;0.20;0.20;;;;;;;;;;4790991;29;20046;-91
2021/07/25 11:22:56;;;;;;;0.20;0.20;;;;;;;;;;4790721;29;20057;-91
2021/07/25 11:25:31;;;;;;;0.20;0.20;;;;;;;;;;4791289;29;20597;-90
2021/07/25 11:27:57;;;;;;;0.30;0.30;;;;;;;;;;4761251;29;20123;-90
2021/07/25 11:30:41;;;;;;;0.13;0.13;;;;;;;;;;4775239;29;20047;-90
2021/07/25 11:33:07;;;;;;;0.20;0.20;;;;;;;;;;4806564;29;20457;-90
2021/07/25 11:35:35;;;;;;;0.20;0.20;;;;;;;;;;4775874;29;20085;-90
2021/07/25 11:38:01;;;;;;;0.22;0.22;;;;;;;;;;4775637;29;20394;-89
2021/07/25 11:40:27;;;;;;;0.32;0.32;;;;;;;;;;4790136;29;20126;-89
2021/07/25 11:42:55;;;;;;;0.20;0.20;;;;;;;;;;4776784;29;20081;-91
2021/07/25 11:45:27;;;;;;;0.20;0.20;;;;;;;;;;4825161;29;20038;-91
2021/07/25 11:47:53;;;;;;;0.20;0.20;;;;;;;;;;4808679;29;20476;-90
2021/07/25 11:50:39;;;;;;;0.20;0.20;;;;;;;;;;4823839;29;20118;-96
2021/07/25 11:53:05;;;;;;;0.10;0.10;;;;;;;;;;4808981;29;20058;-92
2021/07/25 11:55:31;;;;;;;0.20;0.20;;;;;;;;;;4808275;29;20415;-92
2021/07/25 11:58:10;;;;;;;0.10;0.10;;;;;;;;;;4808177;29;20668;-91
2021/07/25 12:00:36;;;;;;;0.20;0.20;;;;;;;;;;4823471;29;20046;-91
2021/07/25 12:03:02;;;;;;;0.15;0.15;;;;;;;;;;4808492;29;20048;-92
2021/07/25 12:05:29;;;;;;;0.20;0.20;;;;;;;;;;4823145;29;20439;-91
2021/07/25 12:07:56;;;;;;;0.20;0.20;;;;;;;;;;4808535;29;20057;-92
2021/07/25 12:10:32;;;;;;;0.10;0.10;;;;;;;;;;4807908;29;20042;-91
2021/07/25 12:13:04;;;;;;;0.20;0.20;;;;;;;;;;4822733;29;20077;-91
2021/07/25 12:15:31;;;;;;;0.10;0.10;;;;;;;;;;4804694;29;20046;-93
2021/07/25 12:17:57;;;;;;;0.20;0.20;;;;;;;;;;4805191;29;20042;-92
2021/07/25 12:20:29;;;;;;;0.20;0.20;;;;;;;;;;4805405;29;20043;-91
2021/07/25 12:23:00;;;;;;;0.20;0.20;;;;;;;;;;4804883;29;20092;-92
2021/07/25 12:25:26;;;;;;;0.20;0.20;;;;;;;;;;4806207;29;20111;-91
2021/07/25 12:28:07;;;;;;;0.43;0.20;;;;;;;;;;4805158;29;20043;-93
2021/07/25 12:30:55;;;;;;;0.13;0.13;;;;;;;;;;4800112;29;20504;-91
2021/07/25 12:33:25;;;;;;;0.10;0.10;;;;;;;;;;4807472;29;20046;-91
2021/07/25 12:35:51;;;;;;;0.63;0.43;;;;;;;;;;4807868;29;20042;-92
2021/07/25 12:38:17;;;;;;;0.20;0.20;;;;;;;;;;4823230;29;20053;-93
2021/07/25 12:40:56;;;;;;;0.30;0.30;;;;;;;;;;4807436;29;20526;-93
2021/07/25 12:43:23;;;;;;;0.30;0.30;;;;;;;;;;4808282;29;20048;-91
2021/07/25 12:45:49;;;;;;;0.20;0.20;;;;;;;;;;4808111;29;20092;-94
2021/07/25 12:48:23;;;;;;;0.20;0.20;;;;;;;;;;4808136;29;20133;-92
2021/07/25 12:51:09;;;;;;;0.10;0.10;;;;;;;;;;4809008;29;20070;-92
2021/07/25 12:53:39;;;;;;;0.20;0.20;;;;;;;;;;4792932;29;20065;-91
2021/07/25 12:56:07;;;;;;;0.28;0.28;;;;;;;;;;4808816;29;20042;-91
2021/07/25 12:58:35;;;;;;;0.20;0.20;;;;;;;;;;4793048;29;20084;-92
2021/07/25 13:03:47;;;;;;;0.20;0.20;;;;;;;;;;4808095;29;20048;-94
2021/07/25 13:06:14;;;;;;;0.10;0.10;;;;;;;;;;4795481;29;20125;-95
2021/07/25 13:08:42;;;;;;;0.20;0.20;;;;;;;;;;4789242;29;20057;-93
2021/07/25 13:11:08;;;;;;;0.10;0.10;;;;;;;;;;4793582;29;20054;-92
2021/07/25 13:13:35;;;;;;;0.20;0.20;;;;;;;;;;4804215;29;20046;-91
2021/07/25 13:16:01;;;;;;;0.20;0.20;;;;;;;;;;4794454;29;20125;-91
2021/07/25 13:18:27;;;;;;;0.20;0.20;;;;;;;;;;4792314;29;20069;-92
2021/07/25 13:20:53;;;;;;;0.20;0.20;;;;;;;;;;4792283;29;20491;-91
2021/07/25 13:23:19;;;;;;;0.20;0.20;;;;;;;;;;4807421;29;20129;-92
2021/07/25 13:25:45;;;;;;;0.20;0.20;;;;;;;;;;4804163;29;20042;-92
2021/07/25 13:28:11;;;;;;;0.20;0.20;;;;;;;;;;4774365;29;20507;-92
2021/07/25 13:30:37;;;;;;;0.10;0.10;;;;;;;;;;4774532;29;20042;-92
2021/07/25 13:33:03;;;;;;;0.20;0.20;;;;;;;;;;4789026;29;20506;-91
2021/07/25 13:35:29;;;;;;;0.20;0.20;;;;;;;;;;4774450;29;20122;-91
2021/07/25 13:37:55;;;;;;;0.20;0.20;;;;;;;;;;4789262;29;20039;-90
2021/07/25 13:40:22;;;;;;;0.20;0.20;;;;;;;;;;4789296;29;20170;-91
2021/07/25 13:42:48;;;;;;;0.32;0.30;;;;;;;;;;4789142;29;20047;-92
2021/07/25 13:45:14;;;;;;;0.50;0.20;;;;;;;;;;4774233;29;20042;-92
2021/07/25 13:47:40;;;;;;;0.20;0.20;;;;;;;;;;4773898;29;20058;-91
2021/07/25 13:50:09;;;;;;;0.20;0.20;;;;;;;;;;4774274;29;20400;-92
2021/07/25 13:52:35;;;;;;;0.20;0.20;;;;;;;;;;4775579;29;20097;-91
2021/07/25 13:55:02;;;;;;;0.28;0.28;;;;;;;;;;4792859;29;20047;-92
2021/07/25 13:57:28;;;;;;;0.30;0.20;;;;;;;;;;4792611;29;20042;-92
2021/07/25 13:59:54;;;;;;;0.20;0.20;;;;;;;;;;4792527;29;20039;-92
2021/07/25 14:02:21;;;;;;;0.20;0.20;;;;;;;;;;4777789;29;20510;-92
2021/07/25 14:04:47;;;;;;;0.20;0.20;;;;;;;;;;4778005;29;20381;-91
2021/07/25 14:07:16;;;;;;;0.22;0.22;;;;;;;;;;4777508;29;20047;-93
2021/07/25 14:09:42;;;;;;;0.20;0.20;;;;;;;;;;4777356;29;20111;-90
2021/07/25 14:12:08;;;;;;;0.10;0.10;;;;;;;;;;4807871;29;20078;-91
2021/07/25 14:14:34;;;;;;;0.20;0.20;;;;;;;;;;4777585;29;20058;-93
2021/07/25 14:17:04;;;;;;;0.20;0.20;;;;;;;;;;4777776;29;20043;-93
2021/07/25 14:19:33;;;;;;;0.10;0.10;;;;;;;;;;4763162;29;20055;-92
2021/07/25 14:21:59;;;;;;;0.20;0.20;;;;;;;;;;4777685;29;20061;-93
2021/07/25 14:24:28;;;;;;;0.68;0.68;;;;;;;;;;4777088;29;20043;-93
2021/07/25 14:26:55;;;;;;;0.10;0.10;;;;;;;;;;4777886;29;20491;-92
2021/07/25 14:29:21;;;;;;;0.20;0.20;;;;;;;;;;4793745;29;20051;-93
2021/07/25 14:31:47;;;;;;;0.20;0.20;;;;;;;;;;4789482;29;20046;-93
2021/07/25 14:34:13;;;;;;;0.10;0.10;;;;;;;;;;4825144;29;20046;-92
2021/07/25 14:36:39;;;;;;;0.20;0.20;;;;;;;;;;4809871;29;20045;-93
2021/07/25 14:39:05;;;;;;;0.20;0.20;;;;;;;;;;4825029;29;20620;-90
2021/07/25 14:41:37;;;;;;;0.20;0.20;;;;;;;;;;4824587;29;20046;-92
2021/07/25 14:44:06;;;;;;;0.20;0.20;;;;;;;;;;4810035;29;20058;-91
2021/07/25 14:46:32;;;;;;;0.20;0.20;;;;;;;;;;4824396;29;20064;-91
2021/07/25 14:48:58;;;;;;;0.20;0.20;;;;;;;;;;4809528;29;20058;-91